Terminal Aerodrome Forecast
Issued by NWS Mt. Holly, NJ

Home | Current Version | Previous Version | Text Only | Print | Product List | Glossary On
Versions: 1 2 3 4 5 6 7 8 9 10 11 12 13 14 15 16 17 18 19 20 21 22 23 24 25 26 27 28 29 30 31 32
000
FTUS41 KPHI 190127 AAB
TAFPHL
TAF AMD
KPHL 190127Z 1901/2006 17008KT P6SM SCT015 SCT100
     FM190300 23006KT P6SM SCT015
      TEMPO 1905/1908 4SM BR BKN015
     FM190800 32004KT 4SM BR BKN015
     FM191100 32006KT P6SM SCT025
     FM191400 30008KT P6SM FEW040
     FM191800 27010KT P6SM SCT050=

USA.gov is the U.S. government's official web portal to all federal, state and local government web resources and services.